Time;durP1;ratioP1;P1;durP2;ratioP2;P2;SDS_P1;SDS_P2;PMS_P1;PMS_P2;Temp;Humidity;BMP_temperature;BMP_pressure;BME280_temperature;BME280_humidity;BME280_pressure;Samples;Min_cycle;Max_cycle;Signal;HPM_P1;HPM_P2
2021/03/04 00:00:52;;;;;;;3.90;3.60;;;7.50;99.90;;;;;;4956692;28;20232;-78
2021/03/04 00:03:19;;;;;;;4.40;4.00;;;7.40;99.90;;;;;;4957982;28;20213;-78
2021/03/04 00:05:45;;;;;;;4.05;3.75;;;7.50;99.90;;;;;;4960225;28;20222;-79
2021/03/04 00:08:12;;;;;;;4.10;3.30;;;7.40;99.90;;;;;;4958427;28;20233;-78
2021/03/04 00:10:39;;;;;;;3.63;3.33;;;7.40;99.90;;;;;;4955676;28;20233;-78
2021/03/04 00:13:06;;;;;;;2.90;2.60;;;7.40;99.90;;;;;;4958021;28;20222;-79
2021/03/04 00:15:34;;;;;;;3.45;3.15;;;7.40;99.90;;;;;;4961451;28;20264;-78
2021/03/04 00:18:01;;;;;;;3.58;3.03;;;7.40;99.90;;;;;;4964093;28;20221;-78
2021/03/04 00:20:30;;;;;;;3.80;3.50;;;7.40;99.90;;;;;;4958179;28;20902;-78
2021/03/04 00:22:57;;;;;;;3.50;3.20;;;7.40;99.90;;;;;;4956514;28;20224;-78
2021/03/04 00:25:25;;;;;;;4.10;3.70;;;7.40;99.90;;;;;;4958624;28;21047;-77
2021/03/04 00:27:53;;;;;;;4.20;3.80;;;7.40;99.90;;;;;;4956184;28;20716;-78
2021/03/04 00:30:21;;;;;;;4.13;3.72;;;7.40;99.90;;;;;;4960349;28;20218;-78
2021/03/04 00:32:48;;;;;;;3.22;2.92;;;7.40;99.90;;;;;;4958462;28;20236;-78
2021/03/04 00:35:15;;;;;;;3.75;3.45;;;7.40;99.90;;;;;;4958607;28;20233;-78
2021/03/04 00:37:42;;;;;;;3.17;2.97;;;7.40;99.90;;;;;;4962681;28;20717;-78
2021/03/04 00:40:11;;;;;;;3.65;3.35;;;7.40;99.90;;;;;;4968587;28;20316;-78
2021/03/04 00:42:38;;;;;;;4.10;3.30;;;7.40;99.90;;;;;;4965483;28;20222;-78
2021/03/04 00:45:09;;;;;;;3.40;3.10;;;7.30;99.90;;;;;;4964057;28;20708;-78
2021/03/04 00:47:35;;;;;;;3.70;3.40;;;7.30;99.90;;;;;;4966345;28;20236;-79
2021/03/04 00:50:07;;;;;;;3.88;3.58;;;7.30;99.90;;;;;;4961034;28;20222;-84
2021/03/04 00:55:55;;;;;;;3.72;3.42;;;7.20;99.90;;;;;;4983146;28;20247;-84
2021/03/04 00:58:22;;;;;;;5.35;3.72;;;7.20;99.90;;;;;;4984259;28;20217;-85
2021/03/04 01:00:49;;;;;;;3.80;3.50;;;7.10;99.90;;;;;;4980093;28;20236;-85
2021/03/04 01:03:17;;;;;;;4.07;3.78;;;7.10;99.90;;;;;;4983574;28;20257;-85
2021/03/04 01:05:44;;;;;;;4.60;3.47;;;7.00;99.90;;;;;;4975425;28;20253;-85
2021/03/04 01:08:11;;;;;;;4.18;3.88;;;7.00;99.90;;;;;;4962399;28;20233;-79
2021/03/04 01:10:45;;;;;;;3.63;3.33;;;6.90;99.90;;;;;;4967166;28;20232;-86
2021/03/04 01:13:12;;;;;;;4.63;3.60;;;6.90;99.90;;;;;;4968347;28;20990;-78
2021/03/04 01:15:38;;;;;;;4.10;3.80;;;6.90;99.90;;;;;;4964705;28;20229;-78
2021/03/04 01:18:06;;;;;;;3.20;2.95;;;6.90;99.90;;;;;;4964326;28;20275;-77
2021/03/04 01:20:37;;;;;;;6.05;3.90;;;6.80;99.90;;;;;;4959443;28;20697;-78
2021/03/04 01:23:04;;;;;;;4.57;4.20;;;6.80;99.90;;;;;;4961908;28;20300;-78
2021/03/04 01:25:30;;;;;;;3.90;3.60;;;6.80;99.90;;;;;;4965569;28;20225;-78
2021/03/04 01:27:57;;;;;;;3.47;3.20;;;6.70;99.90;;;;;;4962363;28;20226;-77
2021/03/04 01:30:29;;;;;;;4.07;3.60;;;6.70;99.90;;;;;;4958429;28;20222;-78
2021/03/04 01:32:56;;;;;;;4.13;3.72;;;6.80;99.90;;;;;;4958340;28;20734;-78
2021/03/04 01:35:23;;;;;;;4.35;3.95;;;6.70;99.90;;;;;;4960594;28;20225;-77
2021/03/04 01:37:50;;;;;;;3.38;3.08;;;6.70;99.90;;;;;;4963164;28;20767;-78
2021/03/04 01:40:20;;;;;;;3.65;3.35;;;6.70;99.90;;;;;;4958968;28;20222;-77
2021/03/04 01:42:47;;;;;;;4.22;3.80;;;6.70;99.90;;;;;;4962231;28;20236;-79
2021/03/04 01:45:14;;;;;;;4.00;3.70;;;6.70;99.90;;;;;;4961738;28;20577;-78
2021/03/04 01:47:45;;;;;;;3.97;3.67;;;6.70;99.90;;;;;;4960751;28;20234;-78
2021/03/04 01:50:13;;;;;;;4.45;3.60;;;6.70;99.90;;;;;;4959375;28;20229;-78
2021/03/04 01:52:42;;;;;;;3.75;3.55;;;6.70;99.90;;;;;;4961529;28;20253;-77
2021/03/04 01:55:09;;;;;;;3.97;3.58;;;6.60;99.90;;;;;;4965694;28;20230;-79
2021/03/04 01:57:37;;;;;;;4.38;3.97;;;6.60;99.90;;;;;;4964251;28;20237;-78
2021/03/04 02:00:06;;;;;;;3.53;3.22;;;6.50;99.90;;;;;;4962643;28;20225;-78
2021/03/04 02:02:33;;;;;;;4.07;3.78;;;6.40;99.90;;;;;;4965140;28;20229;-77
2021/03/04 02:04:59;;;;;;;4.30;3.95;;;6.40;99.90;;;;;;4960748;28;20714;-78
2021/03/04 02:07:34;;;;;;;3.53;3.22;;;6.40;99.90;;;;;;4958099;28;20724;-78
2021/03/04 02:10:08;;;;;;;4.18;3.88;;;6.30;99.90;;;;;;4958961;28;20225;-78
2021/03/04 02:12:52;;;;;;;3.72;3.42;;;6.30;99.90;;;;;;4962271;28;20260;-78
2021/03/04 02:15:26;;;;;;;4.88;4.10;;;6.30;99.90;;;;;;4960329;28;20229;-77
2021/03/04 02:17:54;;;;;;;4.25;3.28;;;6.30;99.90;;;;;;4962902;28;20230;-78
2021/03/04 02:20:51;;;;;;;4.25;3.85;;;6.30;99.90;;;;;;4955361;28;20217;-78
2021/03/04 02:23:48;;;;;;;3.90;3.60;;;6.30;99.90;;;;;;4956981;28;22763;-78
2021/03/04 02:26:30;;;;;;;3.95;3.58;;;6.30;99.90;;;;;;4963315;28;20233;-77
2021/03/04 02:28:59;;;;;;;3.80;3.55;;;6.30;99.90;;;;;;4962257;28;20257;-78
2021/03/04 02:31:28;;;;;;;3.95;3.55;;;6.20;99.90;;;;;;4962827;28;20221;-78
2021/03/04 02:33:55;;;;;;;5.10;4.28;;;6.20;99.90;;;;;;4958309;28;20229;-78
2021/03/04 02:36:24;;;;;;;3.88;3.58;;;6.20;99.90;;;;;;4968903;28;20228;-78
2021/03/04 02:38:52;;;;;;;3.95;3.60;;;6.10;99.90;;;;;;4962892;28;20244;-78
2021/03/04 02:41:19;;;;;;;4.43;4.05;;;6.10;99.90;;;;;;4958278;28;20241;-77
2021/03/04 02:43:46;;;;;;;4.82;4.43;;;6.10;99.90;;;;;;4957103;28;20225;-78
2021/03/04 02:46:14;;;;;;;4.45;3.97;;;6.10;99.90;;;;;;4968587;28;20885;-78
2021/03/04 02:48:42;;;;;;;3.55;3.22;;;6.00;99.90;;;;;;4961826;28;20221;-78
2021/03/04 02:51:09;;;;;;;4.30;3.90;;;6.00;99.90;;;;;;4953869;28;20237;-77
2021/03/04 02:53:38;;;;;;;3.80;3.50;;;6.00;99.90;;;;;;4952783;28;20600;-78
2021/03/04 02:56:05;;;;;;;4.28;3.83;;;6.00;99.90;;;;;;4957550;28;20221;-78
2021/03/04 02:58:33;;;;;;;3.83;3.53;;;6.00;99.90;;;;;;4956294;28;20229;-78
2021/03/04 03:01:01;;;;;;;4.22;3.80;;;6.00;99.90;;;;;;4958814;28;20635;-77
2021/03/04 03:03:30;;;;;;;3.80;3.50;;;6.00;99.90;;;;;;4958729;28;20672;-77
2021/03/04 03:05:58;;;;;;;4.45;4.15;;;6.00;99.90;;;;;;4957198;28;20230;-77
2021/03/04 03:08:26;;;;;;;3.90;3.60;;;6.00;99.90;;;;;;4956165;28;20233;-78
2021/03/04 03:10:53;;;;;;;3.83;3.53;;;6.00;99.90;;;;;;4960829;28;21007;-78
2021/03/04 03:13:20;;;;;;;3.13;2.92;;;6.00;99.90;;;;;;4956637;28;20280;-78
2021/03/04 03:15:47;;;;;;;4.20;3.80;;;5.90;99.90;;;;;;4957957;28;20311;-78
2021/03/04 03:18:13;;;;;;;5.03;4.63;;;5.90;99.90;;;;;;4957745;28;20217;-78
2021/03/04 03:20:41;;;;;;;4.25;3.95;;;6.00;99.90;;;;;;4960626;28;20226;-78
2021/03/04 03:23:07;;;;;;;3.78;3.47;;;5.90;99.90;;;;;;4957557;28;20229;-78
2021/03/04 03:25:34;;;;;;;4.25;3.85;;;5.90;99.90;;;;;;4961856;28;20221;-78
2021/03/04 03:28:01;;;;;;;4.75;4.30;;;5.90;99.90;;;;;;4956760;28;20221;-78
2021/03/04 03:30:29;;;;;;;4.90;3.58;;;5.90;99.90;;;;;;4958117;28;20225;-78
2021/03/04 03:33:09;;;;;;;4.38;4.07;;;5.90;99.90;;;;;;4958725;28;20241;-78
2021/03/04 03:35:37;;;;;;;4.72;4.32;;;5.90;99.90;;;;;;4963622;28;20221;-78
2021/03/04 03:38:06;;;;;;;4.22;3.92;;;5.90;99.90;;;;;;4961806;28;20692;-78
2021/03/04 03:40:35;;;;;;;4.50;4.18;;;5.90;99.90;;;;;;4962570;28;20234;-78
2021/03/04 03:43:04;;;;;;;4.20;3.80;;;5.90;99.90;;;;;;4956159;28;20304;-78
2021/03/04 03:45:34;;;;;;;4.20;3.90;;;5.90;99.90;;;;;;4957089;28;20229;-78
2021/03/04 03:48:02;;;;;;;4.13;3.72;;;5.90;99.90;;;;;;4961578;28;20218;-78
2021/03/04 03:50:30;;;;;;;4.13;3.72;;;5.80;99.90;;;;;;4961087;28;20230;-78
2021/03/04 03:52:57;;;;;;;4.53;4.15;;;5.80;99.90;;;;;;4962093;28;20225;-78
2021/03/04 03:55:25;;;;;;;4.10;3.80;;;5.80;99.90;;;;;;4963681;28;21004;-78
2021/03/04 03:57:54;;;;;;;3.65;3.35;;;5.80;99.90;;;;;;4962450;28;20228;-78
2021/03/04 04:00:24;;;;;;;4.10;3.80;;;5.80;99.90;;;;;;4961495;28;20225;-78
2021/03/04 04:02:54;;;;;;;3.67;3.38;;;5.80;99.90;;;;;;4958216;28;20300;-78
2021/03/04 04:05:20;;;;;;;3.50;3.30;;;5.80;99.90;;;;;;4963057;28;20233;-78
2021/03/04 04:07:48;;;;;;;3.90;3.60;;;5.80;99.90;;;;;;4960256;28;20782;-77
2021/03/04 04:10:15;;;;;;;3.78;3.50;;;5.80;99.90;;;;;;4958845;28;21979;-77
2021/03/04 04:12:42;;;;;;;4.22;3.63;;;5.70;99.90;;;;;;4965477;28;20569;-78
2021/03/04 04:15:09;;;;;;;4.60;4.20;;;5.70;99.90;;;;;;4965609;28;20305;-77
2021/03/04 04:17:36;;;;;;;5.13;3.80;;;5.70;99.90;;;;;;4968136;28;20229;-78
2021/03/04 04:20:05;;;;;;;4.13;3.83;;;5.60;99.90;;;;;;4961271;28;20610;-78
2021/03/04 04:22:32;;;;;;;4.15;3.85;;;5.70;99.90;;;;;;4960062;28;20234;-77
2021/03/04 04:24:59;;;;;;;3.80;3.50;;;5.70;99.90;;;;;;4965964;28;20225;-78
2021/03/04 04:27:26;;;;;;;3.72;3.42;;;5.60;99.90;;;;;;4964039;28;20228;-78
2021/03/04 04:29:53;;;;;;;4.28;3.88;;;5.60;99.90;;;;;;4957015;28;20229;-78
2021/03/04 04:32:20;;;;;;;3.97;3.67;;;5.50;99.90;;;;;;4964846;28;20749;-78
2021/03/04 04:34:47;;;;;;;4.18;3.88;;;5.50;99.90;;;;;;4966618;28;20241;-78
2021/03/04 04:37:13;;;;;;;4.22;3.92;;;5.50;99.90;;;;;;4968885;28;20249;-79
2021/03/04 04:39:40;;;;;;;3.63;3.33;;;5.40;99.90;;;;;;4965329;28;20833;-78
2021/03/04 04:42:08;;;;;;;4.05;3.75;;;5.40;99.90;;;;;;4968625;28;20225;-78
2021/03/04 04:44:35;;;;;;;3.80;3.50;;;5.40;99.90;;;;;;4966009;28;20226;-78
2021/03/04 04:47:03;;;;;;;3.70;3.45;;;5.40;99.90;;;;;;4968505;28;20224;-77
2021/03/04 04:49:29;;;;;;;4.38;4.00;;;5.40;99.90;;;;;;4964444;28;20230;-78
2021/03/04 04:51:56;;;;;;;3.90;3.58;;;5.40;99.90;;;;;;4958573;28;20276;-78
2021/03/04 04:54:22;;;;;;;4.20;3.90;;;5.30;99.90;;;;;;4962975;28;20236;-78
2021/03/04 04:56:49;;;;;;;3.65;3.45;;;5.30;99.90;;;;;;4969243;28;20226;-78
2021/03/04 04:59:15;;;;;;;3.75;3.42;;;5.30;99.90;;;;;;4964798;28;20225;-79
2021/03/04 05:01:42;;;;;;;3.90;3.60;;;5.20;99.90;;;;;;4971259;28;20222;-79
2021/03/04 05:04:10;;;;;;;5.38;3.72;;;5.30;99.90;;;;;;4962304;28;20321;-78
2021/03/04 05:06:36;;;;;;;3.97;3.67;;;5.20;99.90;;;;;;4965437;28;20225;-77
2021/03/04 05:09:03;;;;;;;3.80;3.50;;;5.20;99.90;;;;;;4959055;28;20288;-78
2021/03/04 05:11:29;;;;;;;4.38;3.60;;;5.20;99.90;;;;;;4965863;28;21006;-78
2021/03/04 05:13:56;;;;;;;4.05;3.75;;;5.10;99.90;;;;;;4964222;28;20272;-78
2021/03/04 05:16:23;;;;;;;3.95;3.65;;;5.10;99.90;;;;;;4962612;28;20244;-78
2021/03/04 05:18:49;;;;;;;4.10;3.75;;;5.10;99.90;;;;;;4963526;28;20225;-78
2021/03/04 05:21:17;;;;;;;3.40;3.20;;;5.10;99.90;;;;;;4963396;28;20230;-78
2021/03/04 05:23:44;;;;;;;4.03;3.72;;;5.10;99.90;;;;;;4957959;28;20222;-77
2021/03/04 05:26:10;;;;;;;4.85;3.72;;;5.10;99.90;;;;;;4961599;28;20230;-78
2021/03/04 05:28:37;;;;;;;4.50;4.13;;;5.10;99.90;;;;;;4966476;28;20225;-78
2021/03/04 05:31:03;;;;;;;4.75;4.28;;;5.10;99.90;;;;;;4961817;28;20238;-77
2021/03/04 05:33:30;;;;;;;4.43;4.03;;;5.10;99.90;;;;;;4969043;28;20692;-78
2021/03/04 05:35:56;;;;;;;5.32;4.82;;;5.20;99.90;;;;;;4963739;28;20229;-78
2021/03/04 05:38:25;;;;;;;4.70;4.35;;;5.20;99.90;;;;;;4961099;28;20236;-78
2021/03/04 05:40:51;;;;;;;4.72;4.32;;;5.20;99.90;;;;;;4965273;28;20272;-78
2021/03/04 05:43:19;;;;;;;4.55;4.20;;;5.20;99.90;;;;;;4963205;28;20893;-78
2021/03/04 05:45:49;;;;;;;5.18;4.68;;;5.20;99.90;;;;;;4962684;28;20228;-78
2021/03/04 05:48:20;;;;;;;3.95;3.65;;;5.10;99.90;;;;;;4961858;28;20229;-78
2021/03/04 05:50:49;;;;;;;4.90;4.60;;;5.10;99.90;;;;;;4958691;28;20232;-78
2021/03/04 05:53:19;;;;;;;4.97;4.57;;;5.10;99.90;;;;;;4956802;28;20267;-78
2021/03/04 05:55:47;;;;;;;4.90;4.50;;;5.10;99.90;;;;;;4962925;28;20233;-78
2021/03/04 05:58:14;;;;;;;4.72;4.32;;;5.10;99.90;;;;;;4953578;28;20214;-78
2021/03/04 06:00:42;;;;;;;4.38;4.07;;;5.10;99.90;;;;;;4957155;28;20232;-79
2021/03/04 06:03:09;;;;;;;4.45;4.10;;;5.20;99.90;;;;;;4967273;28;20233;-77
2021/03/04 06:05:36;;;;;;;4.72;4.32;;;5.20;99.90;;;;;;4966195;28;20237;-78
2021/03/04 06:08:04;;;;;;;4.47;4.00;;;5.20;99.90;;;;;;4961714;28;20229;-78
2021/03/04 06:10:31;;;;;;;4.25;3.92;;;5.20;99.90;;;;;;4964098;28;20868;-79
2021/03/04 06:12:59;;;;;;;5.13;4.72;;;5.20;99.90;;;;;;4965758;28;20224;-78
2021/03/04 06:15:27;;;;;;;5.22;4.75;;;5.10;99.90;;;;;;4958389;28;20241;-78
2021/03/04 06:17:55;;;;;;;4.53;4.18;;;5.10;99.90;;;;;;4965461;28;20221;-78
2021/03/04 06:20:22;;;;;;;4.60;4.20;;;5.10;99.90;;;;;;4960287;28;20230;-78
2021/03/04 06:22:50;;;;;;;4.90;4.50;;;5.20;99.90;;;;;;4959448;28;20289;-78
2021/03/04 06:25:18;;;;;;;5.93;5.18;;;5.20;99.90;;;;;;4964160;28;20300;-78
2021/03/04 06:27:47;;;;;;;5.57;5.07;;;5.20;99.90;;;;;;4964148;28;20240;-78
2021/03/04 06:30:17;;;;;;;4.68;4.25;;;5.20;99.90;;;;;;4965213;28;20598;-77
2021/03/04 06:32:57;;;;;;;4.68;4.28;;;5.20;99.90;;;;;;4964281;28;20288;-78
2021/03/04 06:35:24;;;;;;;6.43;5.00;;;5.20;99.90;;;;;;4963735;28;20240;-78
2021/03/04 06:37:51;;;;;;;5.50;5.00;;;5.30;99.90;;;;;;4967904;28;20237;-78
2021/03/04 06:40:21;;;;;;;4.88;4.47;;;5.30;99.90;;;;;;4965987;28;20232;-78
2021/03/04 06:42:49;;;;;;;4.20;3.88;;;5.30;99.90;;;;;;4964959;28;20230;-78
2021/03/04 06:45:33;;;;;;;4.75;4.35;;;5.30;99.90;;;;;;4964290;28;20222;-78
2021/03/04 06:48:08;;;;;;;5.13;4.72;;;5.30;99.90;;;;;;4963550;28;20237;-79
2021/03/04 06:50:36;;;;;;;4.88;4.47;;;5.30;99.90;;;;;;4962867;28;20231;-78
2021/03/04 06:53:16;;;;;;;4.68;4.28;;;5.30;99.90;;;;;;4957769;28;20229;-78
2021/03/04 06:55:54;;;;;;;3.88;3.58;;;5.40;99.90;;;;;;4960685;28;20224;-78
2021/03/04 06:58:25;;;;;;;4.88;4.47;;;5.50;99.90;;;;;;4965576;28;20217;-78
2021/03/04 07:01:09;;;;;;;5.25;4.85;;;5.50;99.90;;;;;;4959426;28;20216;-78
2021/03/04 07:03:37;;;;;;;4.57;4.18;;;5.60;99.90;;;;;;4962589;28;20238;-78
2021/03/04 07:06:05;;;;;;;4.50;4.10;;;5.70;99.90;;;;;;4962860;28;20230;-79
2021/03/04 07:08:34;;;;;;;4.70;4.25;;;5.80;99.90;;;;;;4961013;28;20217;-78
2021/03/04 07:11:03;;;;;;;4.30;4.00;;;5.90;99.90;;;;;;4961927;28;20284;-77
2021/03/04 07:13:32;;;;;;;4.70;4.40;;;6.10;99.90;;;;;;4962215;28;20865;-78
2021/03/04 07:16:06;;;;;;;5.75;5.10;;;6.20;99.90;;;;;;4956337;28;20233;-78
2021/03/04 07:18:39;;;;;;;8.75;5.30;;;6.30;99.90;;;;;;4959503;28;20244;-78
2021/03/04 07:21:09;;;;;;;5.53;4.65;;;6.40;99.90;;;;;;4959173;28;20230;-78
2021/03/04 07:23:38;;;;;;;6.38;5.50;;;6.50;99.90;;;;;;4953883;28;20296;-78
2021/03/04 07:26:06;;;;;;;7.03;4.60;;;6.50;99.90;;;;;;4964060;28;20225;-77
2021/03/04 07:28:35;;;;;;;4.82;4.32;;;6.70;99.90;;;;;;4959066;28;20233;-78
2021/03/04 07:31:02;;;;;;;5.40;4.90;;;7.10;99.90;;;;;;4957750;28;20229;-78
2021/03/04 07:33:31;;;;;;;5.10;4.45;;;7.30;99.90;;;;;;4964757;28;20345;-78
2021/03/04 07:36:01;;;;;;;4.60;4.13;;;7.50;99.90;;;;;;4954520;28;20265;-79
2021/03/04 07:38:30;;;;;;;4.90;4.32;;;7.70;99.90;;;;;;4958163;28;20229;-78
2021/03/04 07:41:05;;;;;;;6.53;4.97;;;8.00;99.90;;;;;;4951897;28;20238;-78
2021/03/04 07:43:43;;;;;;;5.57;5.07;;;8.10;99.90;;;;;;4951887;28;20284;-79
2021/03/04 07:46:10;;;;;;;5.25;4.72;;;8.20;99.90;;;;;;4945287;28;20221;-77
2021/03/04 07:48:49;;;;;;;5.10;4.68;;;8.30;99.90;;;;;;4956930;28;20225;-78
2021/03/04 07:51:16;;;;;;;5.28;4.78;;;8.50;99.90;;;;;;4961393;28;20901;-78
2021/03/04 07:53:44;;;;;;;5.88;5.32;;;8.80;99.90;;;;;;4955333;28;20269;-78
2021/03/04 07:56:22;;;;;;;7.47;4.97;;;9.10;99.90;;;;;;4957382;28;20230;-77
2021/03/04 07:58:48;;;;;;;4.93;4.50;;;9.30;99.90;;;;;;4957500;28;20244;-78
2021/03/04 08:01:15;;;;;;;5.78;4.47;;;9.40;99.90;;;;;;4960428;28;20902;-78
2021/03/04 08:03:47;;;;;;;5.10;4.60;;;9.40;99.90;;;;;;4959929;28;20304;-78
2021/03/04 08:06:14;;;;;;;6.40;5.57;;;9.40;99.90;;;;;;4957774;28;20241;-77
2021/03/04 08:08:41;;;;;;;6.47;5.80;;;9.40;99.90;;;;;;4956765;28;20229;-77
2021/03/04 08:11:08;;;;;;;5.15;4.70;;;9.60;99.90;;;;;;4956670;28;20230;-79
2021/03/04 08:13:36;;;;;;;6.55;4.82;;;9.60;99.90;;;;;;4959410;28;20225;-78
2021/03/04 08:16:11;;;;;;;5.72;5.00;;;9.80;99.90;;;;;;4961418;28;20233;-78
2021/03/04 08:18:38;;;;;;;5.68;5.07;;;10.00;99.90;;;;;;4957958;28;20220;-78
2021/03/04 08:21:07;;;;;;;5.75;5.15;;;10.10;99.90;;;;;;4961027;28;20300;-78
2021/03/04 08:23:42;;;;;;;5.47;4.97;;;10.20;99.90;;;;;;4961983;28;20244;-77
2021/03/04 08:26:09;;;;;;;6.10;5.13;;;10.30;99.90;;;;;;4964367;28;20304;-77
2021/03/04 08:28:36;;;;;;;5.75;5.15;;;10.30;99.90;;;;;;4959992;28;20226;-78
2021/03/04 08:31:06;;;;;;;5.32;4.82;;;10.40;99.90;;;;;;4968515;28;20418;-76
2021/03/04 08:33:33;;;;;;;4.70;4.30;;;10.50;99.90;;;;;;4963306;28;20226;-77
2021/03/04 08:36:01;;;;;;;7.15;5.10;;;10.80;99.90;;;;;;4959654;28;21000;-77
2021/03/04 08:38:38;;;;;;;5.50;5.00;;;11.20;99.90;;;;;;4957213;28;20319;-78
2021/03/04 08:41:05;;;;;;;7.20;4.97;;;11.30;99.90;;;;;;4966678;28;20217;-78
2021/03/04 08:43:31;;;;;;;5.70;5.20;;;11.30;99.90;;;;;;4967822;28;20295;-78
2021/03/04 08:45:59;;;;;;;6.50;5.80;;;11.30;99.90;;;;;;4968162;28;20257;-77
2021/03/04 08:48:26;;;;;;;5.72;5.05;;;11.70;99.90;;;;;;4967094;28;20656;-79
2021/03/04 08:50:54;;;;;;;5.07;4.50;;;12.10;99.90;;;;;;4959859;28;20272;-79
2021/03/04 08:53:22;;;;;;;5.85;4.97;;;12.40;99.90;;;;;;4969280;28;20248;-78
2021/03/04 08:55:51;;;;;;;7.95;5.63;;;12.90;99.90;;;;;;4962708;28;20225;-78
2021/03/04 08:58:19;;;;;;;5.60;5.13;;;13.10;99.90;;;;;;4963483;28;20230;-78
2021/03/04 09:00:50;;;;;;;8.18;5.38;;;12.90;99.90;;;;;;4964386;28;20230;-78
2021/03/04 09:03:17;;;;;;;5.63;5.13;;;12.70;99.90;;;;;;4964703;28;20248;-78
2021/03/04 09:05:45;;;;;;;6.40;5.05;;;12.70;99.90;;;;;;4963450;28;20252;-78
2021/03/04 09:08:13;;;;;;;5.45;4.57;;;12.90;99.90;;;;;;4964008;28;20852;-78
2021/03/04 09:10:44;;;;;;;5.57;5.07;;;12.90;99.90;;;;;;4964356;28;20750;-77
2021/03/04 09:13:18;;;;;;;5.05;4.57;;;13.10;99.90;;;;;;4967251;28;20727;-79
2021/03/04 09:15:49;;;;;;;5.38;4.88;;;13.00;99.90;;;;;;4968918;28;20236;-78
2021/03/04 09:18:16;;;;;;;4.28;3.97;;;12.70;99.90;;;;;;4968648;28;20299;-79
2021/03/04 09:20:43;;;;;;;4.85;4.35;;;12.40;99.90;;;;;;4965815;28;20237;-79
2021/03/04 09:23:11;;;;;;;4.63;4.13;;;12.20;99.90;;;;;;4971316;28;20229;-78
2021/03/04 09:25:37;;;;;;;7.07;5.30;;;12.00;99.90;;;;;;4974153;28;20252;-78
2021/03/04 09:28:07;;;;;;;5.75;4.95;;;11.70;99.90;;;;;;4966616;28;20295;-78
2021/03/04 09:30:35;;;;;;;4.72;4.32;;;11.60;99.90;;;;;;4964393;28;20536;-79
2021/03/04 09:33:02;;;;;;;6.47;4.55;;;11.60;99.90;;;;;;4964949;28;20221;-78
2021/03/04 09:35:28;;;;;;;6.40;4.30;;;11.70;99.90;;;;;;4960769;28;20237;-78
2021/03/04 09:38:06;;;;;;;5.38;4.38;;;11.80;99.90;;;;;;4965030;28;20233;-79
2021/03/04 09:40:33;;;;;;;5.20;4.70;;;11.80;99.90;;;;;;4967924;28;20237;-79
2021/03/04 09:43:00;;;;;;;6.55;5.07;;;11.90;99.90;;;;;;4969320;28;20240;-78
2021/03/04 09:45:27;;;;;;;8.27;4.88;;;11.90;99.90;;;;;;4967779;28;20735;-78
2021/03/04 09:47:54;;;;;;;6.68;5.32;;;11.80;99.90;;;;;;4963344;28;20267;-79
2021/03/04 09:50:24;;;;;;;8.57;5.30;;;11.80;99.90;;;;;;4967867;28;20638;-78
2021/03/04 09:53:01;;;;;;;5.20;4.63;;;12.00;99.90;;;;;;4961587;28;20222;-78
2021/03/04 09:55:33;;;;;;;4.95;4.45;;;12.20;99.90;;;;;;4973844;28;20793;-79
2021/03/04 09:58:12;;;;;;;5.75;5.05;;;12.30;99.90;;;;;;4965299;28;20241;-78
2021/03/04 10:00:39;;;;;;;4.95;4.47;;;12.30;99.90;;;;;;4960407;28;20233;-78
2021/03/04 10:03:11;;;;;;;7.30;4.72;;;12.30;99.90;;;;;;4963232;28;20217;-78
2021/03/04 10:05:48;;;;;;;5.10;4.60;;;12.30;99.90;;;;;;4956528;28;20744;-78
2021/03/04 10:08:16;;;;;;;6.10;5.47;;;12.70;99.90;;;;;;4958522;28;20217;-78
2021/03/04 10:10:43;;;;;;;4.65;4.25;;;13.40;99.90;;;;;;4960564;28;20733;-77
2021/03/04 10:13:10;;;;;;;5.82;4.93;;;13.80;99.60;;;;;;4952934;28;20244;-79
2021/03/04 10:15:38;;;;;;;5.35;4.85;;;14.10;98.70;;;;;;4966380;28;20237;-78
2021/03/04 10:18:09;;;;;;;7.43;4.90;;;14.20;98.40;;;;;;4965726;28;20230;-79
2021/03/04 10:20:37;;;;;;;4.93;4.53;;;14.10;97.40;;;;;;4966788;28;20249;-78
2021/03/04 10:23:03;;;;;;;4.57;4.10;;;13.70;96.20;;;;;;4955524;28;20250;-79
2021/03/04 10:25:30;;;;;;;4.93;4.10;;;13.50;96.80;;;;;;4958205;28;20276;-78
2021/03/04 10:27:59;;;;;;;4.40;4.00;;;13.30;96.90;;;;;;4963355;28;20249;-78
2021/03/04 10:30:26;;;;;;;4.80;3.75;;;13.00;96.70;;;;;;4969150;28;20233;-79
2021/03/04 10:32:53;;;;;;;5.93;3.75;;;12.80;96.50;;;;;;4961983;28;20217;-78
2021/03/04 10:35:43;;;;;;;4.20;3.90;;;12.90;96.80;;;;;;4959988;28;20707;-78
2021/03/04 10:38:09;;;;;;;6.70;4.38;;;13.10;96.80;;;;;;4922633;28;20245;-80
2021/03/04 10:40:36;;;;;;;5.05;4.22;;;13.50;96.80;;;;;;4956978;28;20779;-79
2021/03/04 10:43:03;;;;;;;5.10;4.60;;;13.80;96.70;;;;;;4964504;28;20233;-78
2021/03/04 10:45:29;;;;;;;5.78;3.80;;;14.00;96.90;;;;;;4964117;28;20234;-78
2021/03/04 10:47:56;;;;;;;5.18;4.68;;;14.10;96.40;;;;;;4963257;28;20225;-78
2021/03/04 10:50:24;;;;;;;4.90;4.32;;;14.20;96.50;;;;;;4962079;28;20237;-78
2021/03/04 10:52:52;;;;;;;5.47;3.90;;;14.10;96.30;;;;;;4961538;28;20232;-79
2021/03/04 10:55:19;;;;;;;5.68;4.20;;;14.20;95.90;;;;;;4961288;28;20229;-78
2021/03/04 10:57:45;;;;;;;4.45;3.83;;;14.30;96.10;;;;;;4960826;28;20218;-78
2021/03/04 11:00:13;;;;;;;4.40;4.00;;;14.20;96.20;;;;;;4959746;28;20241;-77
2021/03/04 11:02:40;;;;;;;4.75;4.32;;;14.10;95.80;;;;;;4955533;28;20233;-76
2021/03/04 11:05:08;;;;;;;4.05;3.70;;;13.90;96.10;;;;;;4956198;28;20240;-76
2021/03/04 11:07:35;;;;;;;5.65;4.10;;;13.70;96.30;;;;;;4954162;28;20230;-76
2021/03/04 11:10:05;;;;;;;5.25;4.40;;;13.60;96.60;;;;;;4958434;28;20233;-76
2021/03/04 11:12:31;;;;;;;3.65;3.35;;;13.70;96.40;;;;;;4951353;28;20308;-76
2021/03/04 11:14:58;;;;;;;5.15;4.47;;;14.00;96.30;;;;;;4958605;28;20241;-76
2021/03/04 11:17:25;;;;;;;4.95;4.30;;;14.20;95.80;;;;;;4953917;28;20948;-76
2021/03/04 11:19:51;;;;;;;5.90;4.32;;;14.40;96.00;;;;;;4957557;28;20334;-76
2021/03/04 11:22:18;;;;;;;7.03;4.40;;;14.80;96.00;;;;;;4954947;28;20229;-77
2021/03/04 11:24:46;;;;;;;6.28;4.00;;;14.90;95.40;;;;;;4955216;28;20234;-76
2021/03/04 11:27:14;;;;;;;7.00;3.95;;;14.90;95.00;;;;;;4953740;28;20249;-77
2021/03/04 11:29:41;;;;;;;4.15;3.70;;;14.90;94.20;;;;;;4963853;28;20236;-77
2021/03/04 11:32:08;;;;;;;4.85;3.97;;;14.80;94.50;;;;;;4954870;28;20233;-77
2021/03/04 11:34:35;;;;;;;4.32;3.92;;;14.60;94.40;;;;;;4956589;28;20225;-76
2021/03/04 11:37:02;;;;;;;11.43;3.97;;;14.40;94.20;;;;;;4956747;28;20771;-77
2021/03/04 11:39:28;;;;;;;5.28;4.55;;;14.50;94.40;;;;;;4961357;28;20732;-77
2021/03/04 11:41:55;;;;;;;4.25;3.85;;;14.60;94.70;;;;;;4960337;28;20781;-77
2021/03/04 11:44:23;;;;;;;5.05;3.55;;;14.80;94.70;;;;;;4959867;28;20346;-76
2021/03/04 11:46:49;;;;;;;4.55;3.80;;;14.80;94.50;;;;;;4955434;28;20225;-79
2021/03/04 11:49:16;;;;;;;4.65;3.80;;;15.00;94.50;;;;;;4960036;28;20736;-77
2021/03/04 11:51:43;;;;;;;5.13;4.35;;;15.00;94.50;;;;;;4958566;28;20230;-77
2021/03/04 11:54:09;;;;;;;4.72;3.92;;;14.80;94.40;;;;;;4959794;28;20240;-77
2021/03/04 11:56:36;;;;;;;6.05;3.95;;;14.80;94.30;;;;;;4958175;28;20221;-77
2021/03/04 11:59:05;;;;;;;5.65;4.13;;;14.70;94.40;;;;;;4954517;28;20229;-78
2021/03/04 12:01:33;;;;;;;7.90;4.22;;;14.70;94.70;;;;;;4955869;28;20257;-76
2021/03/04 12:03:59;;;;;;;4.25;3.80;;;14.80;94.50;;;;;;4957438;28;20234;-77
2021/03/04 12:06:26;;;;;;;4.22;3.92;;;14.90;94.50;;;;;;4956152;28;20225;-77
2021/03/04 12:08:53;;;;;;;4.70;3.92;;;15.00;94.40;;;;;;4952699;28;20687;-77
2021/03/04 12:11:19;;;;;;;4.85;3.97;;;15.10;94.20;;;;;;4958530;28;20231;-76
2021/03/04 12:13:46;;;;;;;6.55;4.72;;;15.00;94.30;;;;;;4958218;28;20228;-77
2021/03/04 12:16:12;;;;;;;5.53;3.78;;;15.20;94.40;;;;;;4960058;28;20229;-76
2021/03/04 12:18:40;;;;;;;3.70;3.40;;;15.00;93.90;;;;;;4959276;28;20289;-78
2021/03/04 12:21:07;;;;;;;4.40;4.00;;;14.90;94.20;;;;;;4942253;28;20237;-78
2021/03/04 12:23:33;;;;;;;4.30;3.78;;;14.90;94.10;;;;;;4957418;28;20230;-78
2021/03/04 12:26:00;;;;;;;4.65;4.00;;;14.80;93.70;;;;;;4960123;28;20244;-77
2021/03/04 12:28:27;;;;;;;6.80;4.15;;;14.70;93.90;;;;;;4962679;28;20225;-77
2021/03/04 12:30:53;;;;;;;4.88;4.18;;;14.70;93.90;;;;;;4955313;28;20407;-78
2021/03/04 12:33:20;;;;;;;4.72;4.22;;;14.70;94.50;;;;;;4955143;28;20273;-79
2021/03/04 12:35:47;;;;;;;4.70;4.13;;;14.70;94.10;;;;;;4961122;28;20233;-78
2021/03/04 12:38:14;;;;;;;4.35;3.95;;;14.50;93.80;;;;;;4962284;28;20236;-78
2021/03/04 12:40:41;;;;;;;3.92;3.53;;;14.30;94.10;;;;;;4958713;28;20229;-78
2021/03/04 12:43:07;;;;;;;4.95;4.07;;;14.10;94.30;;;;;;4961403;28;20236;-78
2021/03/04 12:45:34;;;;;;;5.05;4.53;;;14.00;94.30;;;;;;4964611;28;20233;-78
2021/03/04 12:48:02;;;;;;;6.55;4.20;;;13.80;94.40;;;;;;4963038;28;20241;-79
2021/03/04 12:50:29;;;;;;;6.70;5.00;;;13.80;94.40;;;;;;4961325;28;20559;-78
2021/03/04 12:52:57;;;;;;;6.20;4.50;;;13.80;94.30;;;;;;4961372;28;20225;-78
2021/03/04 12:55:25;;;;;;;5.80;4.80;;;13.80;94.60;;;;;;4963413;28;20367;-78
2021/03/04 12:57:51;;;;;;;6.03;4.85;;;13.70;94.50;;;;;;4960008;28;20322;-79
2021/03/04 13:00:19;;;;;;;7.30;4.38;;;13.50;94.70;;;;;;4954308;28;20691;-79
2021/03/04 13:02:45;;;;;;;5.50;4.82;;;13.30;95.10;;;;;;4956926;28;20217;-78